Aviation Digital Data Service (ADDS)

Output produced by METARs form (0702 UTC 20 March 2019)
found at http://www.aviationweather.gov/metar/data/
 
METAR text: RJOT 200600Z 08005KT 9999 FEW030 BKN/// 16/08 Q1015
Conditions at: RJOT (TAKAMATSU AIRPOR, JP) observed 0600 UTC 20 March 2019
Temperature: 16.0°C (61°F)
Dewpoint: 8.0°C (46°F) [RH = 59%]
Pressure (altimeter): 29.97 inches Hg (1015.0 mb)
Winds: from the E (80 degrees) at 6 MPH (5 knots; 2.6 m/s)
Visibility: 6 or more miles (10+ km)
Ceiling: at least 12,000 feet AGL
Clouds: few clouds at 3000 feet AGL
Weather: no significant weather observed at this time

METAR text: RJOT 200500Z 03005KT 330V080 9999 FEW030 BKN/// 16/08 Q1016
Conditions at: RJOT (TAKAMATSU AIRPOR, JP) observed 0500 UTC 20 March 2019
Temperature: 16.0°C (61°F)
Dewpoint: 8.0°C (46°F) [RH = 59%]
Pressure (altimeter): 30.00 inches Hg (1016.0 mb)
Winds: from the NNE (30 degrees) at 6 MPH (5 knots; 2.6 m/s)
Visibility: 6 or more miles (10+ km)
Ceiling: at least 12,000 feet AGL
Clouds: few clouds at 3000 feet AGL
Weather: no significant weather observed at this time

METAR text: RJOT 200400Z 35007KT 320V030 9999 FEW030 BKN/// 15/08 Q1016
Conditions at: RJOT (TAKAMATSU AIRPOR, JP) observed 0400 UTC 20 March 2019
Temperature: 15.0°C (59°F)
Dewpoint: 8.0°C (46°F) [RH = 63%]
Pressure (altimeter): 30.00 inches Hg (1016.0 mb)
Winds: from the N (350 degrees) at 8 MPH (7 knots; 3.6 m/s)
Visibility: 6 or more miles (10+ km)
Ceiling: at least 12,000 feet AGL
Clouds: few clouds at 3000 feet AGL
Weather: no significant weather observed at this time

METAR text: RJOT 200300Z 07006KT 350V090 9999 FEW030 SCT/// 14/08 Q1017
Conditions at: RJOT (TAKAMATSU AIRPOR, JP) observed 0300 UTC 20 March 2019
Temperature: 14.0°C (57°F)
Dewpoint: 8.0°C (46°F) [RH = 67%]
Pressure (altimeter): 30.03 inches Hg (1017.0 mb)
Winds: from the ENE (70 degrees) at 7 MPH (6 knots; 3.1 m/s)
Visibility: 6 or more miles (10+ km)
Ceiling: at least 12,000 feet AGL
Clouds: few clouds at 3000 feet AGL
Weather: no significant weather observed at this time

METAR text: RJOT 200200Z 06009KT 9999 FEW030 BKN/// 14/10 Q1017
Conditions at: RJOT (TAKAMATSU AIRPOR, JP) observed 0200 UTC 20 March 2019
Temperature: 14.0°C (57°F)
Dewpoint: 10.0°C (50°F) [RH = 77%]
Pressure (altimeter): 30.03 inches Hg (1017.0 mb)
Winds: from the ENE (60 degrees) at 10 MPH (9 knots; 4.6 m/s)
Visibility: 6 or more miles (10+ km)
Ceiling: at least 12,000 feet AGL
Clouds: few clouds at 3000 feet AGL
Weather: no significant weather observed at this time

METAR text: RJOT 200100Z 02007KT 340V080 9999 FEW005 BKN/// 11/08 Q1018
Conditions at: RJOT (TAKAMATSU AIRPOR, JP) observed 0100 UTC 20 March 2019
Temperature: 11.0°C (52°F)
Dewpoint: 8.0°C (46°F) [RH = 82%]
Pressure (altimeter): 30.06 inches Hg (1018.0 mb)
Winds: from the NNE (20 degrees) at 8 MPH (7 knots; 3.6 m/s)
Visibility: 6 or more miles (10+ km)
Ceiling: at least 12,000 feet AGL
Clouds: few clouds at 500 feet AGL
Weather: no significant weather observed at this time

METAR text: RJOT 200000Z 08004KT 010V140 9999 FEW000 11/08 Q1018
Conditions at: RJOT (TAKAMATSU AIRPOR, JP) observed 0000 UTC 20 March 2019
Temperature: 11.0°C (52°F)
Dewpoint: 8.0°C (46°F) [RH = 82%]
Pressure (altimeter): 30.06 inches Hg (1018.0 mb)
Winds: from the E (80 degrees) at 5 MPH (4 knots; 2.1 m/s)
Visibility: 6 or more miles (10+ km)
Ceiling: at least 12,000 feet AGL
Clouds: few clouds at 0 feet AGL
Weather: no significant weather observed at this time

METAR text: RJOT 192300Z 13005KT 9999 FEW000 08/06 Q1019
Conditions at: RJOT (TAKAMATSU AIRPOR, JP) observed 2300 UTC 19 March 2019
Temperature: 8.0°C (46°F)
Dewpoint: 6.0°C (43°F) [RH = 87%]
Pressure (altimeter): 30.09 inches Hg (1019.0 mb)
Winds: from the SE (130 degrees) at 6 MPH (5 knots; 2.6 m/s)
Visibility: 6 or more miles (10+ km)
Ceiling: at least 12,000 feet AGL
Clouds: few clouds at 0 feet AGL
Weather: no significant weather observed at this time

METAR text: RJOT 192200Z 14009KT 9999 FEW002 06/05 Q1018
Conditions at: RJOT (TAKAMATSU AIRPOR, JP) observed 2200 UTC 19 March 2019
Temperature: 6.0°C (43°F)
Dewpoint: 5.0°C (41°F) [RH = 93%]
Pressure (altimeter): 30.06 inches Hg (1018.0 mb)
Winds: from the SE (140 degrees) at 10 MPH (9 knots; 4.6 m/s)
Visibility: 6 or more miles (10+ km)
Ceiling: at least 12,000 feet AGL
Clouds: few clouds at 200 feet AGL
Weather: no significant weather observed at this time

METAR text: RJOT 192120Z 14009KT 9999 FEW001 04/04 Q1018 RMK 1ST001 A3009
Conditions at: RJOT (TAKAMATSU AIRPOR, JP) observed 2120 UTC 19 March 2019
Temperature: 4.0°C (39°F)
Dewpoint: 4.0°C (39°F) [RH = 100%]
Pressure (altimeter): 30.06 inches Hg (1018.0 mb)
Winds: from the SE (140 degrees) at 10 MPH (9 knots; 4.6 m/s)
Visibility: 6 or more miles (10+ km)
Ceiling: at least 12,000 feet AGL
Clouds: few clouds at 100 feet AGL
Weather: no significant weather observed at this time

METAR text: RJOT 191200Z 17003KT 140V220 9999 FEW030 06/06 Q1016
Conditions at: RJOT (TAKAMATSU AIRPOR, JP) observed 1200 UTC 19 March 2019
Temperature: 6.0°C (43°F)
Dewpoint: 6.0°C (43°F) [RH = 100%]
Pressure (altimeter): 30.00 inches Hg (1016.0 mb)
Winds: from the S (170 degrees) at 3 MPH (3 knots; 1.5 m/s)
Visibility: 6 or more miles (10+ km)
Ceiling: at least 12,000 feet AGL
Clouds: few clouds at 3000 feet AGL
Weather: no significant weather observed at this time

METAR text: RJOT 191100Z 14007KT 9999 FEW030 07/07 Q1015
Conditions at: RJOT (TAKAMATSU AIRPOR, JP) observed 1100 UTC 19 March 2019
Temperature: 7.0°C (45°F)
Dewpoint: 7.0°C (45°F) [RH = 100%]
Pressure (altimeter): 29.97 inches Hg (1015.0 mb)
Winds: from the SE (140 degrees) at 8 MPH (7 knots; 3.6 m/s)
Visibility: 6 or more miles (10+ km)
Ceiling: at least 12,000 feet AGL
Clouds: few clouds at 3000 feet AGL
Weather: no significant weather observed at this time

METAR text: RJOT 191000Z 21005KT 9999 FEW030 08/08 Q1015
Conditions at: RJOT (TAKAMATSU AIRPOR, JP) observed 1000 UTC 19 March 2019
Temperature: 8.0°C (46°F)
Dewpoint: 8.0°C (46°F) [RH = 100%]
Pressure (altimeter): 29.97 inches Hg (1015.0 mb)
Winds: from the SSW (210 degrees) at 6 MPH (5 knots; 2.6 m/s)
Visibility: 6 or more miles (10+ km)
Ceiling: at least 12,000 feet AGL
Clouds: few clouds at 3000 feet AGL
Weather: no significant weather observed at this time

METAR text: RJOT 190900Z 23006KT 9999 FEW020 SCT080 BKN/// 10/08 Q1014
Conditions at: RJOT (TAKAMATSU AIRPOR, JP) observed 0900 UTC 19 March 2019
Temperature: 10.0°C (50°F)
Dewpoint: 8.0°C (46°F) [RH = 87%]
Pressure (altimeter): 29.94 inches Hg (1014.0 mb)
Winds: from the SW (230 degrees) at 7 MPH (6 knots; 3.1 m/s)
Visibility: 6 or more miles (10+ km)
Ceiling: at least 12,000 feet AGL
Clouds: few clouds at 2000 feet AGL
scattered clouds at 8000 feet AGL
Weather: no significant weather observed at this time

METAR text: RJOT 190800Z 23004KT 200V270 9999 FEW005 SCT040 BKN080 10/08 Q1014
Conditions at: RJOT (TAKAMATSU AIRPOR, JP) observed 0800 UTC 19 March 2019
Temperature: 10.0°C (50°F)
Dewpoint: 8.0°C (46°F) [RH = 87%]
Pressure (altimeter): 29.94 inches Hg (1014.0 mb)
Winds: from the SW (230 degrees) at 5 MPH (4 knots; 2.1 m/s)
Visibility: 6 or more miles (10+ km)
Ceiling: 8000 feet AGL
Clouds: few clouds at 500 feet AGL
scattered clouds at 4000 feet AGL
broken clouds at 8000 feet AGL
Weather: no significant weather observed at this time

METAR text: RJOT 190700Z VRB02KT 8000 FEW005 SCT030 BKN080 09/09 Q1013
Conditions at: RJOT (TAKAMATSU AIRPOR, JP) observed 0700 UTC 19 March 2019
Temperature: 9.0°C (48°F)
Dewpoint: 9.0°C (48°F) [RH = 100%]
Pressure (altimeter): 29.91 inches Hg (1013.0 mb)
Winds: variable direction winds at 2 MPH (2 knots; 1.0 m/s)
Visibility: 5 miles ( 8 km)
Ceiling: 8000 feet AGL
Clouds: few clouds at 500 feet AGL
scattered clouds at 3000 feet AGL
broken clouds at 8000 feet AGL
Weather: no significant weather observed at this time

METAR text: RJOT 190600Z 06006KT 7000 BR FEW002 SCT005 BKN010 09/09 Q1013
Conditions at: RJOT (TAKAMATSU AIRPOR, JP) observed 0600 UTC 19 March 2019
Temperature: 9.0°C (48°F)
Dewpoint: 9.0°C (48°F) [RH = 100%]
Pressure (altimeter): 29.91 inches Hg (1013.0 mb)
Winds: from the ENE (60 degrees) at 7 MPH (6 knots; 3.1 m/s)
Visibility: 4 miles ( 7 km)
Ceiling: 1000 feet AGL
Clouds: few clouds at 200 feet AGL
scattered clouds at 500 feet AGL
broken clouds at 1000 feet AGL
Weather: BR  (mist)

METAR text: RJOT 190500Z 05009KT 010V070 5000 -RA BR FEW000 SCT003 BKN006 09/08 Q1013
Conditions at: RJOT (TAKAMATSU AIRPOR, JP) observed 0500 UTC 19 March 2019
Temperature: 9.0°C (48°F)
Dewpoint: 8.0°C (46°F) [RH = 93%]
Pressure (altimeter): 29.91 inches Hg (1013.0 mb)
Winds: from the NE (50 degrees) at 10 MPH (9 knots; 4.6 m/s)
Visibility: 3 miles ( 5 km)
Ceiling: 600 feet AGL
Clouds: few clouds at 0 feet AGL
scattered clouds at 300 feet AGL
broken clouds at 600 feet AGL
Weather: -RA BR  (light rain, mist)

METAR text: RJOT 190432Z 05007KT 4000 -RA BR FEW000 SCT002 BKN005 09/09 Q1013 RMK 1ST000 3ST002 5ST005 A2993
Conditions at: RJOT (TAKAMATSU AIRPOR, JP) observed 0432 UTC 19 March 2019
Temperature: 9.0°C (48°F)
Dewpoint: 9.0°C (48°F) [RH = 100%]
Pressure (altimeter): 29.91 inches Hg (1013.0 mb)
Winds: from the NE (50 degrees) at 8 MPH (7 knots; 3.6 m/s)
Visibility: 2.49 miles (4.01 km)
Ceiling: 500 feet AGL
Clouds: few clouds at 0 feet AGL
scattered clouds at 200 feet AGL
broken clouds at 500 feet AGL
Weather: -RA BR  (light rain, mist)

METAR text: RJOT 190414Z 07004KT 5000 -RA BR FEW000 SCT003 BKN008 09/09 Q1014 RMK 1ST000 3ST003 5ST008 A2995
Conditions at: RJOT (TAKAMATSU AIRPOR, JP) observed 0414 UTC 19 March 2019
Temperature: 9.0°C (48°F)
Dewpoint: 9.0°C (48°F) [RH = 100%]
Pressure (altimeter): 29.94 inches Hg (1014.0 mb)
Winds: from the ENE (70 degrees) at 5 MPH (4 knots; 2.1 m/s)
Visibility: 3 miles ( 5 km)
Ceiling: 800 feet AGL
Clouds: few clouds at 0 feet AGL
scattered clouds at 300 feet AGL
broken clouds at 800 feet AGL
Weather: -RA BR  (light rain, mist)

METAR text: RJOT 190400Z 07006KT 4000 -RA BR FEW000 SCT003 BKN006 09/09 Q1014
Conditions at: RJOT (TAKAMATSU AIRPOR, JP) observed 0400 UTC 19 March 2019
Temperature: 9.0°C (48°F)
Dewpoint: 9.0°C (48°F) [RH = 100%]
Pressure (altimeter): 29.94 inches Hg (1014.0 mb)
Winds: from the ENE (70 degrees) at 7 MPH (6 knots; 3.1 m/s)
Visibility: 2.49 miles (4.01 km)
Ceiling: 600 feet AGL
Clouds: few clouds at 0 feet AGL
scattered clouds at 300 feet AGL
broken clouds at 600 feet AGL
Weather: -RA BR  (light rain, mist)

METAR text: RJOT 190346Z 07008KT 4000 -RA BR FEW000 SCT003 BKN006 09/09 Q1014 RMK 1ST000 3ST003 5ST006 A2997
Conditions at: RJOT (TAKAMATSU AIRPOR, JP) observed 0346 UTC 19 March 2019
Temperature: 9.0°C (48°F)
Dewpoint: 9.0°C (48°F) [RH = 100%]
Pressure (altimeter): 29.94 inches Hg (1014.0 mb)
Winds: from the ENE (70 degrees) at 9 MPH (8 knots; 4.1 m/s)
Visibility: 2.49 miles (4.01 km)
Ceiling: 600 feet AGL
Clouds: few clouds at 0 feet AGL
scattered clouds at 300 feet AGL
broken clouds at 600 feet AGL
Weather: -RA BR  (light rain, mist)

METAR text: RJOT 190300Z 07008KT 3000 -RA BR FEW000 SCT002 BKN005 09/09 Q1015
Conditions at: RJOT (TAKAMATSU AIRPOR, JP) observed 0300 UTC 19 March 2019
Temperature: 9.0°C (48°F)
Dewpoint: 9.0°C (48°F) [RH = 100%]
Pressure (altimeter): 29.97 inches Hg (1015.0 mb)
Winds: from the ENE (70 degrees) at 9 MPH (8 knots; 4.1 m/s)
Visibility: 1.86 miles (2.99 km)
Ceiling: 500 feet AGL
Clouds: few clouds at 0 feet AGL
scattered clouds at 200 feet AGL
broken clouds at 500 feet AGL
Weather: -RA BR  (light rain, mist)

METAR text: RJOT 190233Z 06008KT 2000 -RA BR FEW000 SCT001 BKN003 08/08 Q1015 RMK 1ST000 3ST001 5ST003 A3000
Conditions at: RJOT (TAKAMATSU AIRPOR, JP) observed 0233 UTC 19 March 2019
Temperature: 8.0°C (46°F)
Dewpoint: 8.0°C (46°F) [RH = 100%]
Pressure (altimeter): 29.97 inches Hg (1015.0 mb)
Winds: from the ENE (60 degrees) at 9 MPH (8 knots; 4.1 m/s)
Visibility: 1.24 miles (2.00 km)
Ceiling: 300 feet AGL
Clouds: few clouds at 0 feet AGL
scattered clouds at 100 feet AGL
broken clouds at 300 feet AGL
Weather: -RA BR  (light rain, mist)

METAR text: RJOT 190220Z 05006KT 1500 R26/2000N -RA BR FEW000 SCT001 BKN003 08/08 Q1016 RMK 1ST000 3ST001 5ST003 A3000
Conditions at: RJOT (TAKAMATSU AIRPOR, JP) observed 0220 UTC 19 March 2019
Temperature: 8.0°C (46°F)
Dewpoint: 8.0°C (46°F) [RH = 100%]
Pressure (altimeter): 30.00 inches Hg (1016.0 mb)
Winds: from the NE (50 degrees) at 7 MPH (6 knots; 3.1 m/s)
Visibility: 0.93 miles (1.50 km)
Ceiling: 300 feet AGL
Clouds: few clouds at 0 feet AGL
scattered clouds at 100 feet AGL
broken clouds at 300 feet AGL
Weather: -RA BR  (light rain, mist)

METAR text: RJOT 190200Z 06008KT 1200 R26/2000N -RA BR FEW000 SCT001 BKN003 08/08 Q1016
Conditions at: RJOT (TAKAMATSU AIRPOR, JP) observed 0200 UTC 19 March 2019
Temperature: 8.0°C (46°F)
Dewpoint: 8.0°C (46°F) [RH = 100%]
Pressure (altimeter): 30.00 inches Hg (1016.0 mb)
Winds: from the ENE (60 degrees) at 9 MPH (8 knots; 4.1 m/s)
Visibility: 0.75 miles (1.21 km)
Ceiling: 300 feet AGL
Clouds: few clouds at 0 feet AGL
scattered clouds at 100 feet AGL
broken clouds at 300 feet AGL
Weather: -RA BR  (light rain, mist)

METAR text: RJOT 190130Z 06010KT 0900 R26/0800VP2000U FG -RA FEW000 SCT001 BKN002 08/08 Q1016 RMK 1ST000 3ST001 5ST002 A3001
Conditions at: RJOT (TAKAMATSU AIRPOR, JP) observed 0130 UTC 19 March 2019
Temperature: 8.0°C (46°F)
Dewpoint: 8.0°C (46°F) [RH = 100%]
Pressure (altimeter): 30.00 inches Hg (1016.0 mb)
Winds: from the ENE (60 degrees) at 12 MPH (10 knots; 5.1 m/s)
Visibility: 0.56 miles (0.90 km)
Ceiling: 200 feet AGL
Clouds: few clouds at 0 feet AGL
scattered clouds at 100 feet AGL
broken clouds at 200 feet AGL
Weather: -RA FG  (light rain, fog)

METAR text: RJOT 190127Z 06009KT 0800 R26/0800VP2000U FG -RA FEW000 SCT001 BKN002 08/08 Q1016 RMK 1ST000 3ST001 5ST002 A3001
Conditions at: RJOT (TAKAMATSU AIRPOR, JP) observed 0127 UTC 19 March 2019
Temperature: 8.0°C (46°F)
Dewpoint: 8.0°C (46°F) [RH = 100%]
Pressure (altimeter): 30.00 inches Hg (1016.0 mb)
Winds: from the ENE (60 degrees) at 10 MPH (9 knots; 4.6 m/s)
Visibility: 0.50 miles (0.80 km)
Ceiling: 200 feet AGL
Clouds: few clouds at 0 feet AGL
scattered clouds at 100 feet AGL
broken clouds at 200 feet AGL
Weather: -RA FG  (light rain, fog)

METAR text: RJOT 190121Z 06007KT 0600 R26/0900VP2000D FG -RA FEW000 SCT001 BKN002 08/08 Q1016 RMK 1ST000 3ST001 5ST002 A3001
Conditions at: RJOT (TAKAMATSU AIRPOR, JP) observed 0121 UTC 19 March 2019
Temperature: 8.0°C (46°F)
Dewpoint: 8.0°C (46°F) [RH = 100%]
Pressure (altimeter): 30.00 inches Hg (1016.0 mb)
Winds: from the ENE (60 degrees) at 8 MPH (7 knots; 3.6 m/s)
Visibility: 0.37 miles (0.60 km)
Ceiling: 200 feet AGL
Clouds: few clouds at 0 feet AGL
scattered clouds at 100 feet AGL
broken clouds at 200 feet AGL
Weather: -RA FG  (light rain, fog)

METAR text: RJOT 190120Z 06007KT 0800 R26/1000VP2000D FG -RA FEW000 SCT001 BKN002 08/08 Q1016 RMK 1ST000 3ST001 5ST002 A3001
Conditions at: RJOT (TAKAMATSU AIRPOR, JP) observed 0120 UTC 19 March 2019
Temperature: 8.0°C (46°F)
Dewpoint: 8.0°C (46°F) [RH = 100%]
Pressure (altimeter): 30.00 inches Hg (1016.0 mb)
Winds: from the ENE (60 degrees) at 8 MPH (7 knots; 3.6 m/s)
Visibility: 0.50 miles (0.80 km)
Ceiling: 200 feet AGL
Clouds: few clouds at 0 feet AGL
scattered clouds at 100 feet AGL
broken clouds at 200 feet AGL
Weather: -RA FG  (light rain, fog)

METAR text: RJOT 190119Z 06006KT 1000 R26/1100VP2000D -RA BR FEW000 SCT001 BKN002 08/08 Q1016 RMK 1ST000 3ST001 5ST002 A3001
Conditions at: RJOT (TAKAMATSU AIRPOR, JP) observed 0119 UTC 19 March 2019
Temperature: 8.0°C (46°F)
Dewpoint: 8.0°C (46°F) [RH = 100%]
Pressure (altimeter): 30.00 inches Hg (1016.0 mb)
Winds: from the ENE (60 degrees) at 7 MPH (6 knots; 3.1 m/s)
Visibility: 0.62 miles (1.00 km)
Ceiling: 200 feet AGL
Clouds: few clouds at 0 feet AGL
scattered clouds at 100 feet AGL
broken clouds at 200 feet AGL
Weather: -RA BR  (light rain, mist)

METAR text: RJOT 190100Z 06007KT 1500 R26/P2000N -RA BR FEW000 SCT001 BKN003 08/08 Q1016
Conditions at: RJOT (TAKAMATSU AIRPOR, JP) observed 0100 UTC 19 March 2019
Temperature: 8.0°C (46°F)
Dewpoint: 8.0°C (46°F) [RH = 100%]
Pressure (altimeter): 30.00 inches Hg (1016.0 mb)
Winds: from the ENE (60 degrees) at 8 MPH (7 knots; 3.6 m/s)
Visibility: 0.93 miles (1.50 km)
Ceiling: 300 feet AGL
Clouds: few clouds at 0 feet AGL
scattered clouds at 100 feet AGL
broken clouds at 300 feet AGL
Weather: -RA BR  (light rain, mist)

METAR text: RJOT 190037Z 07005KT 2000 -RA BR FEW000 SCT002 BKN004 08/08 Q1016 RMK 1ST000 3ST002 5ST004 A3002
Conditions at: RJOT (TAKAMATSU AIRPOR, JP) observed 0037 UTC 19 March 2019
Temperature: 8.0°C (46°F)
Dewpoint: 8.0°C (46°F) [RH = 100%]
Pressure (altimeter): 30.00 inches Hg (1016.0 mb)
Winds: from the ENE (70 degrees) at 6 MPH (5 knots; 2.6 m/s)
Visibility: 1.24 miles (2.00 km)
Ceiling: 400 feet AGL
Clouds: few clouds at 0 feet AGL
scattered clouds at 200 feet AGL
broken clouds at 400 feet AGL
Weather: -RA BR  (light rain, mist)

METAR text: RJOT 190013Z 05004KT 1500 R26/P2000N -RA BR FEW000 SCT002 BKN004 08/08 Q1016 RMK 1ST000 3ST002 5ST004 A3003
Conditions at: RJOT (TAKAMATSU AIRPOR, JP) observed 0013 UTC 19 March 2019
Temperature: 8.0°C (46°F)
Dewpoint: 8.0°C (46°F) [RH = 100%]
Pressure (altimeter): 30.00 inches Hg (1016.0 mb)
Winds: from the NE (50 degrees) at 5 MPH (4 knots; 2.1 m/s)
Visibility: 0.93 miles (1.50 km)
Ceiling: 400 feet AGL
Clouds: few clouds at 0 feet AGL
scattered clouds at 200 feet AGL
broken clouds at 400 feet AGL
Weather: -RA BR  (light rain, mist)

METAR text: RJOT 190006Z 05004KT 330V080 2000 -RA BR FEW000 SCT002 BKN005 08/08 Q1016 RMK 1ST000 3ST002 5ST005 A3003
Conditions at: RJOT (TAKAMATSU AIRPOR, JP) observed 0006 UTC 19 March 2019
Temperature: 8.0°C (46°F)
Dewpoint: 8.0°C (46°F) [RH = 100%]
Pressure (altimeter): 30.00 inches Hg (1016.0 mb)
Winds: from the NE (50 degrees) at 5 MPH (4 knots; 2.1 m/s)
Visibility: 1.24 miles (2.00 km)
Ceiling: 500 feet AGL
Clouds: few clouds at 0 feet AGL
scattered clouds at 200 feet AGL
broken clouds at 500 feet AGL
Weather: -RA BR  (light rain, mist)

METAR text: RJOT 190000Z 06003KT 330V100 2000 -RA BR FEW000 SCT003 BKN008 08/08 Q1016
Conditions at: RJOT (TAKAMATSU AIRPOR, JP) observed 0000 UTC 19 March 2019
Temperature: 8.0°C (46°F)
Dewpoint: 8.0°C (46°F) [RH = 100%]
Pressure (altimeter): 30.00 inches Hg (1016.0 mb)
Winds: from the ENE (60 degrees) at 3 MPH (3 knots; 1.5 m/s)
Visibility: 1.24 miles (2.00 km)
Ceiling: 800 feet AGL
Clouds: few clouds at 0 feet AGL
scattered clouds at 300 feet AGL
broken clouds at 800 feet AGL
Weather: -RA BR  (light rain, mist)

METAR text: RJOT 182326Z 09004KT 3000 RA BR FEW000 SCT010 BKN050 08/08 Q1016 RMK 1ST000 3ST010 6SC050 A3003
Conditions at: RJOT (TAKAMATSU AIRPOR, JP) observed 2326 UTC 18 March 2019
Temperature: 8.0°C (46°F)
Dewpoint: 8.0°C (46°F) [RH = 100%]
Pressure (altimeter): 30.00 inches Hg (1016.0 mb)
Winds: from the E (90 degrees) at 5 MPH (4 knots; 2.1 m/s)
Visibility: 1.86 miles (2.99 km)
Ceiling: 5000 feet AGL
Clouds: few clouds at 0 feet AGL
scattered clouds at 1000 feet AGL
broken clouds at 5000 feet AGL
Weather: RA BR  (moderate rain, mist)

METAR text: RJOT 182316Z 09004KT 4000 RA BR FEW000 SCT010 BKN050 08/07 Q1016 RMK 1ST000 3ST010 6SC050 A3002
Conditions at: RJOT (TAKAMATSU AIRPOR, JP) observed 2316 UTC 18 March 2019
Temperature: 8.0°C (46°F)
Dewpoint: 7.0°C (45°F) [RH = 93%]
Pressure (altimeter): 30.00 inches Hg (1016.0 mb)
Winds: from the E (90 degrees) at 5 MPH (4 knots; 2.1 m/s)
Visibility: 2.49 miles (4.01 km)
Ceiling: 5000 feet AGL
Clouds: few clouds at 0 feet AGL
scattered clouds at 1000 feet AGL
broken clouds at 5000 feet AGL
Weather: RA BR  (moderate rain, mist)

METAR text: RJOT 182300Z 10004KT 070V140 6000 RA BR FEW000 SCT030 BKN050 08/08 Q1016
Conditions at: RJOT (TAKAMATSU AIRPOR, JP) observed 2300 UTC 18 March 2019
Temperature: 8.0°C (46°F)
Dewpoint: 8.0°C (46°F) [RH = 100%]
Pressure (altimeter): 30.00 inches Hg (1016.0 mb)
Winds: from the E (100 degrees) at 5 MPH (4 knots; 2.1 m/s)
Visibility: 4 miles ( 6 km)
Ceiling: 5000 feet AGL
Clouds: few clouds at 0 feet AGL
scattered clouds at 3000 feet AGL
broken clouds at 5000 feet AGL
Weather: RA BR  (moderate rain, mist)

METAR text: RJOT 182232Z 11003KT 080V140 7000 RA FEW000 SCT030 BKN050 08/07 Q1016 RMK 1ST000 3CU030 6SC050 A3001
Conditions at: RJOT (TAKAMATSU AIRPOR, JP) observed 2232 UTC 18 March 2019
Temperature: 8.0°C (46°F)
Dewpoint: 7.0°C (45°F) [RH = 93%]
Pressure (altimeter): 30.00 inches Hg (1016.0 mb)
Winds: from the ESE (110 degrees) at 3 MPH (3 knots; 1.5 m/s)
Visibility: 4 miles ( 7 km)
Ceiling: 5000 feet AGL
Clouds: few clouds at 0 feet AGL
scattered clouds at 3000 feet AGL
broken clouds at 5000 feet AGL
Weather: RA  (moderate rain)

METAR text: RJOT 182200Z 10003KT 6000 -RA PRFG BR FEW000 SCT004 BKN050 08/07 Q1016
Conditions at: RJOT (TAKAMATSU AIRPOR, JP) observed 2200 UTC 18 March 2019
Temperature: 8.0°C (46°F)
Dewpoint: 7.0°C (45°F) [RH = 93%]
Pressure (altimeter): 30.00 inches Hg (1016.0 mb)
Winds: from the E (100 degrees) at 3 MPH (3 knots; 1.5 m/s)
Visibility: 4 miles ( 6 km)
Ceiling: 5000 feet AGL
Clouds: few clouds at 0 feet AGL
scattered clouds at 400 feet AGL
broken clouds at 5000 feet AGL
Weather: -RA PRFG BR  (light rain, partial fog, mist)

METAR text: RJOT 182142Z VRB02KT 6000 -RA BR FEW000 SCT004 BKN010 07/07 Q1016 RMK 1ST000 3ST004 5ST010 A3000
Conditions at: RJOT (TAKAMATSU AIRPOR, JP) observed 2142 UTC 18 March 2019
Temperature: 7.0°C (45°F)
Dewpoint: 7.0°C (45°F) [RH = 100%]
Pressure (altimeter): 30.00 inches Hg (1016.0 mb)
Winds: variable direction winds at 2 MPH (2 knots; 1.0 m/s)
Visibility: 4 miles ( 6 km)
Ceiling: 1000 feet AGL
Clouds: few clouds at 0 feet AGL
scattered clouds at 400 feet AGL
broken clouds at 1000 feet AGL
Weather: -RA BR  (light rain, mist)

METAR text: RJOT 182135Z VRB01KT 5000 R26/2000N RA BR FEW000 SCT004 BKN008 07/07 Q1016 RMK 1ST000 3ST004 5ST008 A3000
Conditions at: RJOT (TAKAMATSU AIRPOR, JP) observed 2135 UTC 18 March 2019
Temperature: 7.0°C (45°F)
Dewpoint: 7.0°C (45°F) [RH = 100%]
Pressure (altimeter): 30.00 inches Hg (1016.0 mb)
Winds: variable direction winds at 1 MPH (1 knots; 0.5 m/s)
Visibility: 3 miles ( 5 km)
Ceiling: 800 feet AGL
Clouds: few clouds at 0 feet AGL
scattered clouds at 400 feet AGL
broken clouds at 800 feet AGL
Weather: RA BR  (moderate rain, mist)

METAR text: RJOT 182129Z VRB01KT 3500 R26/1000VP2000U -RA BR FEW000 SCT002 BKN008 07/07 Q1015 RMK 1ST000 3ST002 5ST008 A3000
Conditions at: RJOT (TAKAMATSU AIRPOR, JP) observed 2129 UTC 18 March 2019
Temperature: 7.0°C (45°F)
Dewpoint: 7.0°C (45°F) [RH = 100%]
Pressure (altimeter): 29.97 inches Hg (1015.0 mb)
Winds: variable direction winds at 1 MPH (1 knots; 0.5 m/s)
Visibility: 2.17 miles (3.49 km)
Ceiling: 800 feet AGL
Clouds: few clouds at 0 feet AGL
scattered clouds at 200 feet AGL
broken clouds at 800 feet AGL
Weather: -RA BR  (light rain, mist)

METAR text: RJOT 182128Z VRB02KT 2500 R26/0800VP2000U -RA BR FEW000 SCT002 BKN008 07/07 Q1015 RMK 1ST000 3ST002 5ST008 A3000
Conditions at: RJOT (TAKAMATSU AIRPOR, JP) observed 2128 UTC 18 March 2019
Temperature: 7.0°C (45°F)
Dewpoint: 7.0°C (45°F) [RH = 100%]
Pressure (altimeter): 29.97 inches Hg (1015.0 mb)
Winds: variable direction winds at 2 MPH (2 knots; 1.0 m/s)
Visibility: 1.55 miles (2.49 km)
Ceiling: 800 feet AGL
Clouds: few clouds at 0 feet AGL
scattered clouds at 200 feet AGL
broken clouds at 800 feet AGL
Weather: -RA BR  (light rain, mist)

METAR text: RJOT 182126Z VRB02KT 2500 R26/0700VP2000U -RA BR FEW000 SCT002 BKN008 07/07 Q1015 RMK 1ST000 3ST002 5ST008 A3000
Conditions at: RJOT (TAKAMATSU AIRPOR, JP) observed 2126 UTC 18 March 2019
Temperature: 7.0°C (45°F)
Dewpoint: 7.0°C (45°F) [RH = 100%]
Pressure (altimeter): 29.97 inches Hg (1015.0 mb)
Winds: variable direction winds at 2 MPH (2 knots; 1.0 m/s)
Visibility: 1.55 miles (2.49 km)
Ceiling: 800 feet AGL
Clouds: few clouds at 0 feet AGL
scattered clouds at 200 feet AGL
broken clouds at 800 feet AGL
Weather: -RA BR  (light rain, mist)

METAR text: RJOT 182125Z VRB02KT 2000 R26/0700VP2000U -RA BR FEW000 SCT002 BKN005 07/07 Q1015 RMK 1ST000 3ST002 5ST005 A3000
Conditions at: RJOT (TAKAMATSU AIRPOR, JP) observed 2125 UTC 18 March 2019
Temperature: 7.0°C (45°F)
Dewpoint: 7.0°C (45°F) [RH = 100%]
Pressure (altimeter): 29.97 inches Hg (1015.0 mb)
Winds: variable direction winds at 2 MPH (2 knots; 1.0 m/s)
Visibility: 1.24 miles (2.00 km)
Ceiling: 500 feet AGL
Clouds: few clouds at 0 feet AGL
scattered clouds at 200 feet AGL
broken clouds at 500 feet AGL
Weather: -RA BR  (light rain, mist)

METAR text: RJOT 182120Z 10003KT 1200 R26/0700V1200D -RA BR FEW000 SCT002 BKN004 07/07 Q1015 RMK 1ST000 3ST002 5ST004 A3000
Conditions at: RJOT (TAKAMATSU AIRPOR, JP) observed 2120 UTC 18 March 2019
Temperature: 7.0°C (45°F)
Dewpoint: 7.0°C (45°F) [RH = 100%]
Pressure (altimeter): 29.97 inches Hg (1015.0 mb)
Winds: from the E (100 degrees) at 3 MPH (3 knots; 1.5 m/s)
Visibility: 0.75 miles (1.21 km)
Ceiling: 400 feet AGL
Clouds: few clouds at 0 feet AGL
scattered clouds at 200 feet AGL
broken clouds at 400 feet AGL
Weather: -RA BR  (light rain, mist)

METAR text: RJOT 182116Z 10003KT 1500 R26/0900V1700D -RA BR FEW000 SCT002 BKN004 07/07 Q1015 RMK 1ST000 3ST002 5ST004 A3000
Conditions at: RJOT (TAKAMATSU AIRPOR, JP) observed 2116 UTC 18 March 2019
Temperature: 7.0°C (45°F)
Dewpoint: 7.0°C (45°F) [RH = 100%]
Pressure (altimeter): 29.97 inches Hg (1015.0 mb)
Winds: from the E (100 degrees) at 3 MPH (3 knots; 1.5 m/s)
Visibility: 0.93 miles (1.50 km)
Ceiling: 400 feet AGL
Clouds: few clouds at 0 feet AGL
scattered clouds at 200 feet AGL
broken clouds at 400 feet AGL
Weather: -RA BR  (light rain, mist)

METAR text: RJOT 182113Z 10003KT 2000 R26/0900V1700D -RA BR FEW000 SCT002 BKN005 07/07 Q1015 RMK 1ST000 3ST002 5ST005 A3000
Conditions at: RJOT (TAKAMATSU AIRPOR, JP) observed 2113 UTC 18 March 2019
Temperature: 7.0°C (45°F)
Dewpoint: 7.0°C (45°F) [RH = 100%]
Pressure (altimeter): 29.97 inches Hg (1015.0 mb)
Winds: from the E (100 degrees) at 3 MPH (3 knots; 1.5 m/s)
Visibility: 1.24 miles (2.00 km)
Ceiling: 500 feet AGL
Clouds: few clouds at 0 feet AGL
scattered clouds at 200 feet AGL
broken clouds at 500 feet AGL
Weather: -RA BR  (light rain, mist)

METAR text: RJOT 182111Z 10003KT 060V130 2000 R26/1200VP2000D -RA BR FEW000 SCT002 BKN005 07/07 Q1015 RMK 1ST000 3ST002 5ST005 A3000
Conditions at: RJOT (TAKAMATSU AIRPOR, JP) observed 2111 UTC 18 March 2019
Temperature: 7.0°C (45°F)
Dewpoint: 7.0°C (45°F) [RH = 100%]
Pressure (altimeter): 29.97 inches Hg (1015.0 mb)
Winds: from the E (100 degrees) at 3 MPH (3 knots; 1.5 m/s)
Visibility: 1.24 miles (2.00 km)
Ceiling: 500 feet AGL
Clouds: few clouds at 0 feet AGL
scattered clouds at 200 feet AGL
broken clouds at 500 feet AGL
Weather: -RA BR  (light rain, mist)

METAR text: RJOT 182109Z 10003KT 060V130 2000 R26/1300VP2000D -RA BR FEW000 SCT002 BKN005 07/07 Q1016 RMK 1ST000 3ST002 5ST005 A3000
Conditions at: RJOT (TAKAMATSU AIRPOR, JP) observed 2109 UTC 18 March 2019
Temperature: 7.0°C (45°F)
Dewpoint: 7.0°C (45°F) [RH = 100%]
Pressure (altimeter): 30.00 inches Hg (1016.0 mb)
Winds: from the E (100 degrees) at 3 MPH (3 knots; 1.5 m/s)
Visibility: 1.24 miles (2.00 km)
Ceiling: 500 feet AGL
Clouds: few clouds at 0 feet AGL
scattered clouds at 200 feet AGL
broken clouds at 500 feet AGL
Weather: -RA BR  (light rain, mist)

Forecast for: RJOT (TAKAMATSU AIRPOR, JP)
Text: TAF RJOT 200507Z 2006/2112 03004KT 9999 FEW030
Forecast period: 0600 UTC 20 March 2019 to 0000 UTC 21 March 2019
Forecast type: FROM: standard forecast or significant change
Winds: from the NNE (30 degrees) at 5 MPH (4 knots; 2.1 m/s)
Visibility: 6 or more miles 10+ km)
Ceiling: at least 12,000 feet AGL
Clouds: few clouds at 3000 feet AGL
Weather: no significant weather forecast for this period
Text: TEMPO 2018/2100 2000 -SHRA BR BCFG FEW000 SCT003 BKN005
Forecast period: 1800 UTC 20 March 2019 to 0000 UTC 21 March 2019
Forecast type: TEMPORARY: The following changes expected for less than half the time period
Visibility: 1.24 miles (2.00 km)
Ceiling: 500 feet AGL
Clouds: few clouds at 0 feet AGL
scattered clouds at 300 feet AGL
broken clouds at 500 feet AGL
Weather: -SHRA BR BCFG  (light rain showers, mist, patches of fog)
Text: BECMG 2100/2103 25009KT
Forecast period: 0000 to 1200 UTC 21 March 2019
Forecast type: BECOMING: Conditions expected to become as follows by 0300 UTC 21 March 2019
Winds: from the WSW (250 degrees) at 10 MPH (9 knots; 4.6 m/s)
Visibility: 6 or more miles 10+ km)
Ceiling: at least 12,000 feet AGL
Clouds: few clouds at 3000 feet AGL
Weather: no significant weather forecast for this period